Manchester, Maryland
Current Conditions -  °F | °C
As of 3:10 AM on Thursday 27 Nov 2014 (Local Time) from KDMW Reporting Station
Overcast Overcast  
Wind Chill: 27°   Ceiling: 9500
Heat Index: 32°   Visibility: 7mi
Dew Point: 30°   Wind: 5mph
Humidity: 93%   Direction: 290°WNW
Pressure: 29.98"   Gusts: NA
Location:  39.66°N, 76.88°W
Report Text: KDMW 270810Z AUTO 29004KT 7SM SCT070 OVC095 00/M01 A2998 RMK AO2
Loading
Personal Weather Stations






























Interactive Weather Map New forecast layout! Learn more

10-Day Weather Forecast

Advertisements
Track Severe Weather on mobile